sensor_id;sensor_type;location;lat;lon;timestamp;pressure;altitude;pressure_sealevel;temperature;humidity
27429;BME280;14881;48.092;11.574;2024-01-30T00:02:01;96840.41;;;-2.92;100.00
27429;BME280;14881;48.092;11.574;2024-01-30T00:04:27;96838.13;;;-2.95;100.00
27429;BME280;14881;48.092;11.574;2024-01-30T00:06:54;96846.28;;;-2.97;100.00
27429;BME280;14881;48.092;11.574;2024-01-30T00:09:20;96849.75;;;-2.96;100.00
27429;BME280;14881;48.092;11.574;2024-01-30T00:11:47;96851.09;;;-3.00;100.00
27429;BME280;14881;48.092;11.574;2024-01-30T00:14:14;96850.25;;;-3.01;100.00
27429;BME280;14881;48.092;11.574;2024-01-30T00:16:40;96854.75;;;-3.01;100.00
27429;BME280;14881;48.092;11.574;2024-01-30T00:19:07;96850.25;;;-3.01;100.00
27429;BME280;14881;48.092;11.574;2024-01-30T00:21:34;96852.25;;;-3.03;100.00
27429;BME280;14881;48.092;11.574;2024-01-30T00:24:00;96848.94;;;-3.05;100.00
27429;BME280;14881;48.092;11.574;2024-01-30T00:26:27;96853.75;;;-3.00;100.00
27429;BME280;14881;48.092;11.574;2024-01-30T00:28:53;96857.59;;;-3.03;100.00
27429;BME280;14881;48.092;11.574;2024-01-30T00:31:20;96851.59;;;-3.05;100.00
27429;BME280;14881;48.092;11.574;2024-01-30T00:33:47;96852.28;;;-3.11;100.00
27429;BME280;14881;48.092;11.574;2024-01-30T00:36:15;96844.50;;;-3.12;100.00
27429;BME280;14881;48.092;11.574;2024-01-30T00:38:41;96851.81;;;-3.14;100.00
27429;BME280;14881;48.092;11.574;2024-01-30T00:41:08;96850.31;;;-3.17;100.00
27429;BME280;14881;48.092;11.574;2024-01-30T00:43:35;96843.53;;;-3.20;100.00
27429;BME280;14881;48.092;11.574;2024-01-30T00:46:01;96851.50;;;-3.20;100.00
27429;BME280;14881;48.092;11.574;2024-01-30T00:48:31;96845.50;;;-3.22;100.00
27429;BME280;14881;48.092;11.574;2024-01-30T00:50:57;96851.81;;;-3.23;100.00
27429;BME280;14881;48.092;11.574;2024-01-30T00:53:23;96854.97;;;-3.27;100.00
27429;BME280;14881;48.092;11.574;2024-01-30T00:55:50;96857.63;;;-3.27;100.00
27429;BME280;14881;48.092;11.574;2024-01-30T00:58:16;96853.31;;;-3.20;100.00
27429;BME280;14881;48.092;11.574;2024-01-30T01:00:45;96857.13;;;-3.23;100.00
27429;BME280;14881;48.092;11.574;2024-01-30T01:03:12;96855.97;;;-3.20;100.00
27429;BME280;14881;48.092;11.574;2024-01-30T01:05:40;96855.47;;;-3.24;100.00
27429;BME280;14881;48.092;11.574;2024-01-30T01:08:06;96852.16;;;-3.26;100.00
27429;BME280;14881;48.092;11.574;2024-01-30T01:10:33;96865.78;;;-3.29;100.00
27429;BME280;14881;48.092;11.574;2024-01-30T01:12:59;96860.13;;;-3.26;100.00
27429;BME280;14881;48.092;11.574;2024-01-30T01:15:26;96862.94;;;-3.27;100.00
27429;BME280;14881;48.092;11.574;2024-01-30T01:17:55;96853.16;;;-3.27;100.00
27429;BME280;14881;48.092;11.574;2024-01-30T01:20:22;96850.66;;;-3.28;100.00
27429;BME280;14881;48.092;11.574;2024-01-30T01:22:49;96860.81;;;-3.32;100.00
27429;BME280;14881;48.092;11.574;2024-01-30T01:25:15;96853.84;;;-3.33;100.00
27429;BME280;14881;48.092;11.574;2024-01-30T01:27:42;96857.66;;;-3.35;100.00
27429;BME280;14881;48.092;11.574;2024-01-30T01:30:11;96852.19;;;-3.34;100.00
27429;BME280;14881;48.092;11.574;2024-01-30T01:32:44;96862.81;;;-3.34;100.00
27429;BME280;14881;48.092;11.574;2024-01-30T01:35:16;96847.88;;;-3.35;100.00
27429;BME280;14881;48.092;11.574;2024-01-30T01:37:43;96860.16;;;-3.34;100.00
27429;BME280;14881;48.092;11.574;2024-01-30T01:40:10;96857.00;;;-3.37;100.00
27429;BME280;14881;48.092;11.574;2024-01-30T01:42:38;96845.72;;;-3.39;100.00
27429;BME280;14881;48.092;11.574;2024-01-30T01:45:05;96843.91;;;-3.39;100.00
27429;BME280;14881;48.092;11.574;2024-01-30T01:47:32;96842.41;;;-3.41;100.00
27429;BME280;14881;48.092;11.574;2024-01-30T01:49:58;96844.22;;;-3.42;100.00
27429;BME280;14881;48.092;11.574;2024-01-30T01:52:25;96847.72;;;-3.41;100.00
27429;BME280;14881;48.092;11.574;2024-01-30T01:54:52;96846.88;;;-3.42;100.00
27429;BME280;14881;48.092;11.574;2024-01-30T01:57:20;96839.91;;;-3.43;100.00
27429;BME280;14881;48.092;11.574;2024-01-30T01:59:46;96842.72;;;-3.44;100.00
27429;BME280;14881;48.092;11.574;2024-01-30T02:02:14;96847.22;;;-3.45;100.00
27429;BME280;14881;48.092;11.574;2024-01-30T02:04:44;96844.94;;;-3.48;100.00
27429;BME280;14881;48.092;11.574;2024-01-30T02:07:10;96842.44;;;-3.49;100.00
27429;BME280;14881;48.092;11.574;2024-01-30T02:09:37;96839.94;;;-3.51;100.00
27429;BME280;14881;48.092;11.574;2024-01-30T02:12:04;96846.59;;;-3.47;100.00
27429;BME280;14881;48.092;11.574;2024-01-30T02:14:32;96842.09;;;-3.46;100.00
27429;BME280;14881;48.092;11.574;2024-01-30T02:17:00;96848.56;;;-3.49;100.00
27429;BME280;14881;48.092;11.574;2024-01-30T02:19:27;96845.91;;;-3.49;100.00
27429;BME280;14881;48.092;11.574;2024-01-30T02:21:54;96848.56;;;-3.49;100.00
27429;BME280;14881;48.092;11.574;2024-01-30T02:24:20;96854.06;;;-3.51;100.00
27429;BME280;14881;48.092;11.574;2024-01-30T02:26:50;96846.75;;;-3.57;100.00
27429;BME280;14881;48.092;11.574;2024-01-30T02:29:16;96853.72;;;-3.56;100.00
27429;BME280;14881;48.092;11.574;2024-01-30T02:31:43;96846.75;;;-3.57;100.00
27429;BME280;14881;48.092;11.574;2024-01-30T02:34:11;96848.75;;;-3.59;100.00
27429;BME280;14881;48.092;11.574;2024-01-30T02:36:38;96848.56;;;-3.57;100.00
27429;BME280;14881;48.092;11.574;2024-01-30T02:39:07;96848.06;;;-3.61;100.00
27429;BME280;14881;48.092;11.574;2024-01-30T02:41:33;96847.59;;;-3.64;100.00
27429;BME280;14881;48.092;11.574;2024-01-30T02:44:02;96852.91;;;-3.64;100.00
27429;BME280;14881;48.092;11.574;2024-01-30T02:46:28;96843.94;;;-3.63;100.00
27429;BME280;14881;48.092;11.574;2024-01-30T02:48:55;96849.59;;;-3.66;100.00
27429;BME280;14881;48.092;11.574;2024-01-30T02:51:22;96850.25;;;-3.64;100.00
27429;BME280;14881;48.092;11.574;2024-01-30T02:53:48;96839.66;;;-3.64;100.00
27429;BME280;14881;48.092;11.574;2024-01-30T02:56:15;96833.50;;;-3.65;100.00
27429;BME280;14881;48.092;11.574;2024-01-30T02:58:42;96838.28;;;-3.60;100.00
27429;BME280;14881;48.092;11.574;2024-01-30T03:01:08;96830.81;;;-3.57;100.00
27429;BME280;14881;48.092;11.574;2024-01-30T03:03:35;96831.97;;;-3.59;100.00
27429;BME280;14881;48.092;11.574;2024-01-30T03:06:02;96828.31;;;-3.58;100.00
27429;BME280;14881;48.092;11.574;2024-01-30T03:08:28;96822.53;;;-3.54;100.00
27429;BME280;14881;48.092;11.574;2024-01-30T03:10:55;96827.97;;;-3.39;100.00
27429;BME280;14881;48.092;11.574;2024-01-30T03:13:22;96830.94;;;-3.34;100.00
27429;BME280;14881;48.092;11.574;2024-01-30T03:15:50;96825.75;;;-3.27;100.00
27429;BME280;14881;48.092;11.574;2024-01-30T03:18:17;96819.38;;;-3.02;100.00
27429;BME280;14881;48.092;11.574;2024-01-30T03:20:44;96827.19;;;-3.08;100.00
27429;BME280;14881;48.092;11.574;2024-01-30T03:23:10;96817.81;;;-2.88;100.00
27429;BME280;14881;48.092;11.574;2024-01-30T03:25:39;96821.97;;;-2.86;100.00
27429;BME280;14881;48.092;11.574;2024-01-30T03:28:06;96817.63;;;-2.87;100.00
27429;BME280;14881;48.092;11.574;2024-01-30T03:30:34;96816.22;;;-2.66;100.00
27429;BME280;14881;48.092;11.574;2024-01-30T03:33:01;96814.28;;;-2.50;100.00
27429;BME280;14881;48.092;11.574;2024-01-30T03:35:30;96812.94;;;-2.46;100.00
27429;BME280;14881;48.092;11.574;2024-01-30T03:37:56;96812.88;;;-2.37;100.00
27429;BME280;14881;48.092;11.574;2024-01-30T03:40:22;96808.44;;;-2.45;100.00
27429;BME280;14881;48.092;11.574;2024-01-30T03:42:49;96810.78;;;-2.50;100.00
27429;BME280;14881;48.092;11.574;2024-01-30T03:45:16;96809.47;;;-2.54;100.00
27429;BME280;14881;48.092;11.574;2024-01-30T03:47:45;96812.38;;;-2.64;100.00
27429;BME280;14881;48.092;11.574;2024-01-30T03:50:12;96799.38;;;-2.59;100.00
27429;BME280;14881;48.092;11.574;2024-01-30T03:52:38;96803.66;;;-2.50;100.00
27429;BME280;14881;48.092;11.574;2024-01-30T03:55:05;96802.34;;;-2.31;100.00
27429;BME280;14881;48.092;11.574;2024-01-30T03:57:32;96806.19;;;-2.33;100.00
27429;BME280;14881;48.092;11.574;2024-01-30T04:00:01;96805.53;;;-2.35;100.00
27429;BME280;14881;48.092;11.574;2024-01-30T04:02:30;96804.59;;;-2.20;100.00
27429;BME280;14881;48.092;11.574;2024-01-30T04:04:57;96805.56;;;-2.13;100.00
27429;BME280;14881;48.092;11.574;2024-01-30T04:07:24;96806.97;;;-2.02;100.00
27429;BME280;14881;48.092;11.574;2024-01-30T04:09:51;96801.06;;;-2.12;100.00
27429;BME280;14881;48.092;11.574;2024-01-30T04:12:17;96803.13;;;-2.22;100.00
27429;BME280;14881;48.092;11.574;2024-01-30T04:14:44;96799.31;;;-2.05;100.00
27429;BME280;14881;48.092;11.574;2024-01-30T04:17:10;96803.53;;;-2.11;100.00
27429;BME280;14881;48.092;11.574;2024-01-30T04:19:37;96798.66;;;-2.07;100.00
27429;BME280;14881;48.092;11.574;2024-01-30T04:22:11;96808.50;;;-2.07;100.00
27429;BME280;14881;48.092;11.574;2024-01-30T04:24:38;96790.41;;;-2.12;100.00
27429;BME280;14881;48.092;11.574;2024-01-30T04:27:05;96798.44;;;-1.97;100.00
27429;BME280;14881;48.092;11.574;2024-01-30T04:29:32;96794.41;;;-1.93;100.00
27429;BME280;14881;48.092;11.574;2024-01-30T04:31:59;96791.56;;;-1.92;100.00
27429;BME280;14881;48.092;11.574;2024-01-30T04:34:26;96795.00;;;-2.06;100.00
27429;BME280;14881;48.092;11.574;2024-01-30T04:36:52;96794.13;;;-2.21;100.00
27429;BME280;14881;48.092;11.574;2024-01-30T04:39:19;96798.69;;;-2.30;100.00
27429;BME280;14881;48.092;11.574;2024-01-30T04:41:46;96800.56;;;-2.38;100.00
27429;BME280;14881;48.092;11.574;2024-01-30T04:44:12;96796.81;;;-2.44;100.00
27429;BME280;14881;48.092;11.574;2024-01-30T04:46:39;96801.34;;;-2.53;100.00
27429;BME280;14881;48.092;11.574;2024-01-30T04:49:05;96794.34;;;-2.54;100.00
27429;BME280;14881;48.092;11.574;2024-01-30T04:51:33;96797.09;;;-2.62;100.00
27429;BME280;14881;48.092;11.574;2024-01-30T04:54:00;96804.41;;;-2.64;100.00
27429;BME280;14881;48.092;11.574;2024-01-30T04:56:27;96794.31;;;-2.46;100.00
27429;BME280;14881;48.092;11.574;2024-01-30T04:58:53;96799.19;;;-2.26;100.00
27429;BME280;14881;48.092;11.574;2024-01-30T05:01:22;96797.84;;;-2.07;100.00
27429;BME280;14881;48.092;11.574;2024-01-30T05:03:49;96796.69;;;-1.90;100.00
27429;BME280;14881;48.092;11.574;2024-01-30T05:06:24;96794.59;;;-1.57;100.00
27429;BME280;14881;48.092;11.574;2024-01-30T05:08:50;96796.63;;;-1.30;100.00
27429;BME280;14881;48.092;11.574;2024-01-30T05:11:17;96793.59;;;-1.27;100.00
27429;BME280;14881;48.092;11.574;2024-01-30T05:13:44;96796.31;;;-1.35;100.00
27429;BME280;14881;48.092;11.574;2024-01-30T05:16:11;96795.78;;;-1.45;100.00
27429;BME280;14881;48.092;11.574;2024-01-30T05:18:37;96799.00;;;-1.50;100.00
27429;BME280;14881;48.092;11.574;2024-01-30T05:21:05;96803.81;;;-1.68;100.00
27429;BME280;14881;48.092;11.574;2024-01-30T05:23:32;96802.50;;;-1.87;100.00
27429;BME280;14881;48.092;11.574;2024-01-30T05:25:58;96805.28;;;-2.03;100.00
27429;BME280;14881;48.092;11.574;2024-01-30T05:28:26;96803.75;;;-2.20;100.00
27429;BME280;14881;48.092;11.574;2024-01-30T05:30:53;96804.53;;;-2.34;100.00
27429;BME280;14881;48.092;11.574;2024-01-30T05:33:20;96812.94;;;-2.46;100.00
27429;BME280;14881;48.092;11.574;2024-01-30T05:35:47;96810.66;;;-2.57;100.00
27429;BME280;14881;48.092;11.574;2024-01-30T05:38:15;96814.03;;;-2.63;100.00
27429;BME280;14881;48.092;11.574;2024-01-30T05:40:42;96812.72;;;-2.67;100.00
27429;BME280;14881;48.092;11.574;2024-01-30T05:43:09;96821.22;;;-2.71;100.00
27429;BME280;14881;48.092;11.574;2024-01-30T05:45:35;96817.63;;;-2.78;100.00
27429;BME280;14881;48.092;11.574;2024-01-30T05:48:03;96822.78;;;-2.85;100.00
27429;BME280;14881;48.092;11.574;2024-01-30T05:50:30;96820.47;;;-2.88;100.00
27429;BME280;14881;48.092;11.574;2024-01-30T05:52:57;96830.78;;;-2.93;100.00
27429;BME280;14881;48.092;11.574;2024-01-30T05:55:24;96832.81;;;-2.95;100.00
27429;BME280;14881;48.092;11.574;2024-01-30T05:57:51;96829.00;;;-3.01;100.00
27429;BME280;14881;48.092;11.574;2024-01-30T06:00:18;96838.97;;;-3.03;100.00
27429;BME280;14881;48.092;11.574;2024-01-30T06:02:46;96842.81;;;-3.05;100.00
27429;BME280;14881;48.092;11.574;2024-01-30T06:05:14;96844.97;;;-3.09;100.00
27429;BME280;14881;48.092;11.574;2024-01-30T06:07:40;96835.88;;;-3.14;100.00
27429;BME280;14881;48.092;11.574;2024-01-30T06:10:08;96840.53;;;-3.17;100.00
27429;BME280;14881;48.092;11.574;2024-01-30T06:12:35;96837.53;;;-3.22;100.00
27429;BME280;14881;48.092;11.574;2024-01-30T06:15:02;96843.84;;;-3.23;100.00
27429;BME280;14881;48.092;11.574;2024-01-30T06:17:28;96851.50;;;-3.28;100.00
27429;BME280;14881;48.092;11.574;2024-01-30T06:19:55;96849.84;;;-3.29;100.00
27429;BME280;14881;48.092;11.574;2024-01-30T06:22:22;96853.03;;;-3.33;100.00
27429;BME280;14881;48.092;11.574;2024-01-30T06:24:49;96847.22;;;-3.37;100.00
27429;BME280;14881;48.092;11.574;2024-01-30T06:27:15;96851.03;;;-3.39;100.00
27429;BME280;14881;48.092;11.574;2024-01-30T06:29:43;96839.91;;;-3.43;100.00
27429;BME280;14881;48.092;11.574;2024-01-30T06:32:10;96848.03;;;-3.44;100.00
27429;BME280;14881;48.092;11.574;2024-01-30T06:34:36;96846.38;;;-3.45;100.00
27429;BME280;14881;48.092;11.574;2024-01-30T06:37:04;96848.41;;;-3.47;100.00
27429;BME280;14881;48.092;11.574;2024-01-30T06:39:32;96853.88;;;-3.49;100.00
27429;BME280;14881;48.092;11.574;2024-01-30T06:41:58;96843.44;;;-3.51;100.00
27429;BME280;14881;48.092;11.574;2024-01-30T06:44:24;96853.88;;;-3.49;100.00
27429;BME280;14881;48.092;11.574;2024-01-30T06:46:51;96856.38;;;-3.47;100.00
27429;BME280;14881;48.092;11.574;2024-01-30T06:49:17;96854.34;;;-3.45;100.00
27429;BME280;14881;48.092;11.574;2024-01-30T06:51:44;96860.69;;;-3.46;100.00
27429;BME280;14881;48.092;11.574;2024-01-30T06:54:10;96860.50;;;-3.45;100.00
27429;BME280;14881;48.092;11.574;2024-01-30T06:56:38;96859.66;;;-3.45;100.00
27429;BME280;14881;48.092;11.574;2024-01-30T06:59:06;96862.31;;;-3.45;100.00
27429;BME280;14881;48.092;11.574;2024-01-30T07:01:34;96869.28;;;-3.44;100.00
27429;BME280;14881;48.092;11.574;2024-01-30T07:04:00;96871.94;;;-3.44;100.00
27429;BME280;14881;48.092;11.574;2024-01-30T07:06:27;96873.94;;;-3.38;100.00
27429;BME280;14881;48.092;11.574;2024-01-30T07:08:53;96869.63;;;-3.39;100.00
27429;BME280;14881;48.092;11.574;2024-01-30T07:11:20;96869.63;;;-3.39;100.00
27429;BME280;14881;48.092;11.574;2024-01-30T07:13:48;96865.81;;;-3.37;100.00
27429;BME280;14881;48.092;11.574;2024-01-30T07:16:15;96881.25;;;-3.32;100.00
27429;BME280;14881;48.092;11.574;2024-01-30T07:18:41;96880.56;;;-3.26;100.00
27429;BME280;14881;48.092;11.574;2024-01-30T07:21:08;96875.06;;;-3.17;100.00
27429;BME280;14881;48.092;11.574;2024-01-30T07:23:36;96879.56;;;-3.17;100.00
27429;BME280;14881;48.092;11.574;2024-01-30T07:26:04;96874.56;;;-3.12;100.00
27429;BME280;14881;48.092;11.574;2024-01-30T07:28:32;96879.00;;;-3.04;100.00
27429;BME280;14881;48.092;11.574;2024-01-30T07:30:59;96880.50;;;-3.02;100.00
27429;BME280;14881;48.092;11.574;2024-01-30T07:33:26;96883.50;;;-2.97;100.00
27429;BME280;14881;48.092;11.574;2024-01-30T07:35:53;96881.28;;;-2.93;100.00
27429;BME280;14881;48.092;11.574;2024-01-30T07:38:19;96882.44;;;-2.88;100.00
27429;BME280;14881;48.092;11.574;2024-01-30T07:40:46;96878.78;;;-2.78;100.00
27429;BME280;14881;48.092;11.574;2024-01-30T07:43:12;96883.88;;;-2.77;100.00
27429;BME280;14881;48.092;11.574;2024-01-30T07:45:39;96875.72;;;-2.67;100.00
27429;BME280;14881;48.092;11.574;2024-01-30T07:48:06;96877.03;;;-2.63;100.00
27429;BME280;14881;48.092;11.574;2024-01-30T07:50:33;96877.31;;;-2.58;100.00
27429;BME280;14881;48.092;11.574;2024-01-30T07:53:00;96879.13;;;-2.51;100.00
27429;BME280;14881;48.092;11.574;2024-01-30T07:55:27;96875.63;;;-2.43;100.00
27429;BME280;14881;48.092;11.574;2024-01-30T07:57:54;96881.38;;;-2.39;100.00
27429;BME280;14881;48.092;11.574;2024-01-30T08:00:21;96878.69;;;-2.31;100.00
27429;BME280;14881;48.092;11.574;2024-01-30T08:02:48;96879.63;;;-2.24;100.00
27429;BME280;14881;48.092;11.574;2024-01-30T08:05:15;96880.56;;;-2.09;100.00
27429;BME280;14881;48.092;11.574;2024-01-30T08:07:41;96873.81;;;-1.97;100.00
27429;BME280;14881;48.092;11.574;2024-01-30T08:10:08;96881.84;;;-1.82;100.00
27429;BME280;14881;48.092;11.574;2024-01-30T08:12:35;96882.63;;;-1.73;100.00
27429;BME280;14881;48.092;11.574;2024-01-30T08:15:02;96877.53;;;-1.60;100.00
27429;BME280;14881;48.092;11.574;2024-01-30T08:17:29;96882.06;;;-1.46;100.00
27429;BME280;14881;48.092;11.574;2024-01-30T08:19:55;96886.22;;;-1.29;100.00
27429;BME280;14881;48.092;11.574;2024-01-30T08:22:22;96887.44;;;-1.02;100.00
27429;BME280;14881;48.092;11.574;2024-01-30T08:24:49;96885.25;;;-0.84;100.00
27429;BME280;14881;48.092;11.574;2024-01-30T08:27:15;96873.38;;;-0.66;100.00
27429;BME280;14881;48.092;11.574;2024-01-30T08:29:42;96875.28;;;-0.46;100.00
27429;BME280;14881;48.092;11.574;2024-01-30T08:32:08;96873.97;;;-0.20;100.00
27429;BME280;14881;48.092;11.574;2024-01-30T08:34:35;96862.97;;;0.11;100.00
27429;BME280;14881;48.092;11.574;2024-01-30T08:37:01;96854.72;;;0.27;100.00
27429;BME280;14881;48.092;11.574;2024-01-30T08:39:29;96857.19;;;0.50;100.00
27429;BME280;14881;48.092;11.574;2024-01-30T08:41:56;96856.06;;;0.65;100.00
27429;BME280;14881;48.092;11.574;2024-01-30T08:44:22;96852.53;;;0.86;100.00
27429;BME280;14881;48.092;11.574;2024-01-30T08:46:49;96856.25;;;1.26;100.00
27429;BME280;14881;48.092;11.574;2024-01-30T08:49:16;96847.34;;;1.54;100.00
27429;BME280;14881;48.092;11.574;2024-01-30T08:51:43;96845.81;;;1.92;100.00
27429;BME280;14881;48.092;11.574;2024-01-30T08:54:09;96837.84;;;2.25;100.00
27429;BME280;14881;48.092;11.574;2024-01-30T08:56:36;96848.19;;;2.88;100.00
27429;BME280;14881;48.092;11.574;2024-01-30T08:59:03;96840.84;;;3.41;100.00
27429;BME280;14881;48.092;11.574;2024-01-30T09:01:29;96841.28;;;3.82;100.00
27429;BME280;14881;48.092;11.574;2024-01-30T09:03:56;96834.16;;;4.01;100.00
27429;BME280;14881;48.092;11.574;2024-01-30T09:06:23;96843.22;;;4.13;100.00
27429;BME280;14881;48.092;11.574;2024-01-30T09:08:50;96841.47;;;4.32;100.00
27429;BME280;14881;48.092;11.574;2024-01-30T09:11:16;96840.31;;;4.46;100.00
27429;BME280;14881;48.092;11.574;2024-01-30T09:13:43;96843.94;;;4.59;100.00
27429;BME280;14881;48.092;11.574;2024-01-30T09:16:10;96841.16;;;4.72;100.00
27429;BME280;14881;48.092;11.574;2024-01-30T09:18:38;96840.59;;;4.88;100.00
27429;BME280;14881;48.092;11.574;2024-01-30T09:21:05;96848.28;;;5.09;100.00
27429;BME280;14881;48.092;11.574;2024-01-30T09:23:31;96847.47;;;5.27;100.00
27429;BME280;14881;48.092;11.574;2024-01-30T09:25:58;96844.75;;;5.52;100.00
27429;BME280;14881;48.092;11.574;2024-01-30T09:28:24;96846.06;;;5.79;100.00
27429;BME280;14881;48.092;11.574;2024-01-30T09:30:54;96839.75;;;6.22;100.00
27429;BME280;14881;48.092;11.574;2024-01-30T09:33:20;96840.56;;;6.64;100.00
27429;BME280;14881;48.092;11.574;2024-01-30T09:35:47;96844.38;;;6.98;100.00
27429;BME280;14881;48.092;11.574;2024-01-30T09:38:13;96842.28;;;7.23;100.00
27429;BME280;14881;48.092;11.574;2024-01-30T09:40:40;96845.19;;;7.45;100.00
27429;BME280;14881;48.092;11.574;2024-01-30T09:43:07;96839.75;;;7.68;100.00
27429;BME280;14881;48.092;11.574;2024-01-30T09:45:35;96845.22;;;7.97;100.00
27429;BME280;14881;48.092;11.574;2024-01-30T09:48:02;96847.47;;;8.28;100.00
27429;BME280;14881;48.092;11.574;2024-01-30T09:50:30;96840.78;;;8.59;100.00
27429;BME280;14881;48.092;11.574;2024-01-30T09:52:58;96846.63;;;9.01;100.00
27429;BME280;14881;48.092;11.574;2024-01-30T09:55:25;96841.91;;;9.47;100.00
27429;BME280;14881;48.092;11.574;2024-01-30T09:57:52;96834.38;;;9.93;100.00
27429;BME280;14881;48.092;11.574;2024-01-30T10:00:19;96832.84;;;10.45;100.00
27429;BME280;14881;48.092;11.574;2024-01-30T10:02:46;96832.94;;;11.14;100.00
27429;BME280;14881;48.092;11.574;2024-01-30T10:05:15;96830.78;;;12.01;100.00
27429;BME280;14881;48.092;11.574;2024-01-30T10:07:52;96821.50;;;12.79;95.56
27429;BME280;14881;48.092;11.574;2024-01-30T10:10:19;96826.94;;;13.05;68.89
27429;BME280;14881;48.092;11.574;2024-01-30T10:12:47;96826.97;;;13.40;75.68
27429;BME280;14881;48.092;11.574;2024-01-30T10:15:14;96816.44;;;14.03;77.93
27429;BME280;14881;48.092;11.574;2024-01-30T10:17:41;96815.09;;;14.60;77.57
27429;BME280;14881;48.092;11.574;2024-01-30T10:20:09;96811.66;;;15.22;81.68
27429;BME280;14881;48.092;11.574;2024-01-30T10:22:36;96811.38;;;15.53;84.80
27429;BME280;14881;48.092;11.574;2024-01-30T10:25:04;96812.47;;;15.52;68.65
27429;BME280;14881;48.092;11.574;2024-01-30T10:27:32;96810.72;;;15.66;78.30
27429;BME280;14881;48.092;11.574;2024-01-30T10:29:58;96809.69;;;15.86;72.90
27429;BME280;14881;48.092;11.574;2024-01-30T10:32:25;96807.81;;;15.81;62.05
27429;BME280;14881;48.092;11.574;2024-01-30T10:34:52;96795.19;;;16.09;71.62
27429;BME280;14881;48.092;11.574;2024-01-30T10:37:19;96801.19;;;15.87;65.80
27429;BME280;14881;48.092;11.574;2024-01-30T10:39:53;96802.91;;;15.49;66.98
27429;BME280;14881;48.092;11.574;2024-01-30T10:42:25;96794.22;;;15.08;66.09
27429;BME280;14881;48.092;11.574;2024-01-30T10:44:57;96790.44;;;14.70;62.66
27429;BME280;14881;48.092;11.574;2024-01-30T10:47:27;96787.59;;;14.36;58.41
27429;BME280;14881;48.092;11.574;2024-01-30T10:49:54;96780.94;;;13.93;57.51
27429;BME280;14881;48.092;11.574;2024-01-30T10:52:23;96780.19;;;13.82;55.36
27429;BME280;14881;48.092;11.574;2024-01-30T10:54:51;96780.38;;;14.01;56.01
27429;BME280;14881;48.092;11.574;2024-01-30T10:57:18;96775.88;;;14.31;56.17
27429;BME280;14881;48.092;11.574;2024-01-30T10:59:45;96769.41;;;14.60;58.98
27429;BME280;14881;48.092;11.574;2024-01-30T11:02:15;96768.81;;;14.69;52.30
27429;BME280;14881;48.092;11.574;2024-01-30T11:04:42;96773.28;;;14.93;54.92
27429;BME280;14881;48.092;11.574;2024-01-30T11:07:15;96766.09;;;15.03;51.64
27429;BME280;14881;48.092;11.574;2024-01-30T11:09:48;96760.78;;;15.16;50.23
27429;BME280;14881;48.092;11.574;2024-01-30T11:12:16;96768.56;;;15.33;57.43
27429;BME280;14881;48.092;11.574;2024-01-30T11:14:42;96765.94;;;15.47;57.28
27429;BME280;14881;48.092;11.574;2024-01-30T11:17:10;96763.03;;;15.67;52.29
27429;BME280;14881;48.092;11.574;2024-01-30T11:19:38;96758.81;;;16.22;54.01
27429;BME280;14881;48.092;11.574;2024-01-30T11:22:06;96759.13;;;16.40;52.42
27429;BME280;14881;48.092;11.574;2024-01-30T11:24:39;96750.25;;;16.05;48.82
27429;BME280;14881;48.092;11.574;2024-01-30T11:27:08;96757.38;;;15.58;48.90
27429;BME280;14881;48.092;11.574;2024-01-30T11:29:36;96760.41;;;15.81;50.88
27429;BME280;14881;48.092;11.574;2024-01-30T11:32:03;96744.63;;;16.15;49.42
27429;BME280;14881;48.092;11.574;2024-01-30T11:34:32;96738.28;;;16.39;49.13
27429;BME280;14881;48.092;11.574;2024-01-30T11:37:02;96730.94;;;16.90;47.69
27429;BME280;14881;48.092;11.574;2024-01-30T11:39:29;96735.34;;;16.73;45.61
27429;BME280;14881;48.092;11.574;2024-01-30T11:41:57;96733.50;;;17.00;50.04
27429;BME280;14881;48.092;11.574;2024-01-30T11:44:24;96728.97;;;17.10;46.39
27429;BME280;14881;48.092;11.574;2024-01-30T11:46:52;96730.81;;;16.63;48.21
27429;BME280;14881;48.092;11.574;2024-01-30T11:49:19;96740.94;;;16.62;50.89
27429;BME280;14881;48.092;11.574;2024-01-30T11:51:45;96718.84;;;16.54;52.38
27429;BME280;14881;48.092;11.574;2024-01-30T11:54:14;96732.28;;;16.55;48.97
27429;BME280;14881;48.092;11.574;2024-01-30T11:56:40;96725.59;;;16.61;49.75
27429;BME280;14881;48.092;11.574;2024-01-30T11:59:07;96716.91;;;16.54;49.43
27429;BME280;14881;48.092;11.574;2024-01-30T12:01:34;96724.88;;;16.75;45.15
27429;BME280;14881;48.092;11.574;2024-01-30T12:04:01;96726.34;;;16.67;45.72
27429;BME280;14881;48.092;11.574;2024-01-30T12:06:28;96717.16;;;16.77;44.73
27429;BME280;14881;48.092;11.574;2024-01-30T12:08:59;96718.56;;;17.07;48.53
27429;BME280;14881;48.092;11.574;2024-01-30T12:11:26;96705.44;;;17.63;48.69
27429;BME280;14881;48.092;11.574;2024-01-30T12:13:53;96704.94;;;17.61;43.25
27429;BME280;14881;48.092;11.574;2024-01-30T12:16:20;96704.19;;;17.42;42.03
27429;BME280;14881;48.092;11.574;2024-01-30T12:18:47;96702.50;;;17.73;43.10
27429;BME280;14881;48.092;11.574;2024-01-30T12:21:16;96702.03;;;17.25;42.07
27429;BME280;14881;48.092;11.574;2024-01-30T12:23:43;96698.84;;;17.18;43.32
27429;BME280;14881;48.092;11.574;2024-01-30T12:26:09;96689.66;;;16.95;42.75
27429;BME280;14881;48.092;11.574;2024-01-30T12:28:36;96697.91;;;16.95;43.22
27429;BME280;14881;48.092;11.574;2024-01-30T12:31:03;96698.59;;;16.68;47.05
27429;BME280;14881;48.092;11.574;2024-01-30T12:33:31;96688.53;;;16.08;43.33
27429;BME280;14881;48.092;11.574;2024-01-30T12:36:01;96689.88;;;16.10;45.17
27429;BME280;14881;48.092;11.574;2024-01-30T12:38:30;96695.03;;;15.93;45.10
27429;BME280;14881;48.092;11.574;2024-01-30T12:40:57;96691.84;;;15.86;48.14
27429;BME280;14881;48.092;11.574;2024-01-30T12:43:25;96691.59;;;15.82;46.98